createdAt,value
2022-09-13T00:02:03.292Z,3.00
2022-09-13T00:04:31.059Z,2.53
2022-09-13T00:06:58.475Z,3.08
2022-09-13T00:09:25.919Z,3.17
2022-09-13T00:11:53.632Z,3.20
2022-09-13T00:14:21.037Z,3.05
2022-09-13T00:16:48.486Z,3.83
2022-09-13T00:19:16.243Z,2.97
2022-09-13T00:21:43.617Z,3.12
2022-09-13T00:24:11.015Z,2.90
2022-09-13T00:26:38.640Z,3.45
2022-09-13T00:29:06.015Z,3.55
2022-09-13T00:31:33.566Z,3.40
2022-09-13T00:34:01.329Z,2.67
2022-09-13T00:36:47.535Z,3.03
2022-09-13T00:39:15.160Z,2.80
2022-09-13T00:41:42.609Z,2.90
2022-09-13T00:44:47.280Z,3.15
2022-09-13T00:47:19.462Z,3.03
2022-09-13T00:49:48.522Z,3.50
2022-09-13T00:52:20.139Z,3.70
2022-09-13T00:54:55.106Z,3.45
2022-09-13T00:57:24.737Z,3.03
2022-09-13T01:00:14.067Z,3.40
2022-09-13T01:02:45.857Z,3.35
2022-09-13T01:05:15.599Z,3.50
2022-09-13T01:07:44.051Z,3.50
2022-09-13T01:10:11.507Z,3.22
2022-09-13T01:13:15.109Z,3.08
2022-09-13T01:15:42.778Z,3.20
2022-09-13T01:18:11.152Z,3.60
2022-09-13T01:21:15.821Z,3.10
2022-09-13T01:24:10.142Z,3.40
2022-09-13T01:27:04.267Z,3.10
2022-09-13T01:29:59.926Z,3.30
2022-09-13T01:32:30.502Z,3.22
2022-09-13T01:35:21.377Z,2.80
2022-09-13T01:38:01.162Z,3.25
2022-09-13T01:41:07.906Z,2.55
2022-09-13T01:43:58.250Z,3.17
2022-09-13T01:46:52.442Z,3.17
2022-09-13T01:49:45.190Z,3.42
2022-09-13T01:52:35.010Z,2.70
2022-09-13T01:55:37.078Z,2.80
2022-09-13T01:58:38.399Z,3.12
2022-09-13T02:01:32.251Z,3.03
2022-09-13T02:04:14.836Z,3.12
2022-09-13T02:07:09.083Z,2.97
2022-09-13T02:09:40.488Z,3.50
2022-09-13T02:12:14.280Z,3.05
2022-09-13T02:14:44.750Z,3.40
2022-09-13T02:17:22.634Z,3.22
2022-09-13T02:19:56.498Z,3.15
2022-09-13T02:22:32.237Z,3.45
2022-09-13T02:25:10.590Z,3.20
2022-09-13T02:27:39.366Z,3.10
2022-09-13T02:30:09.001Z,3.20
2022-09-13T02:32:40.679Z,2.95
2022-09-13T02:35:22.923Z,3.25
2022-09-13T02:37:58.510Z,2.75
2022-09-13T02:40:35.240Z,3.00
2022-09-13T02:43:08.912Z,2.92
2022-09-13T02:45:44.845Z,3.40
2022-09-13T02:48:23.810Z,3.55
2022-09-13T02:51:08.386Z,3.50
2022-09-13T02:53:50.398Z,3.15
2022-09-13T02:56:25.625Z,2.95
2022-09-13T02:59:20.145Z,3.28
2022-09-13T03:01:52.539Z,3.60
2022-09-13T03:04:19.984Z,3.78
2022-09-13T03:06:49.603Z,3.20
2022-09-13T03:09:17.320Z,3.22
2022-09-13T03:12:22.666Z,3.15
2022-09-13T03:15:13.843Z,3.08
2022-09-13T03:17:45.861Z,4.03
2022-09-13T03:20:23.251Z,3.30
2022-09-13T03:23:15.431Z,3.00
2022-09-13T03:25:59.286Z,3.30
2022-09-13T03:28:32.499Z,3.60
2022-09-13T03:31:08.051Z,3.47
2022-09-13T03:33:46.638Z,3.45
2022-09-13T03:36:21.795Z,3.17
2022-09-13T03:39:05.834Z,3.10
2022-09-13T03:41:37.394Z,4.00
2022-09-13T03:44:08.104Z,3.30
2022-09-13T03:46:39.151Z,3.22
2022-09-13T03:49:13.188Z,4.90
2022-09-13T03:51:42.096Z,3.72
2022-09-13T03:54:18.615Z,3.37
2022-09-13T03:57:11.367Z,3.28
2022-09-13T03:59:42.183Z,3.67
2022-09-13T04:02:11.793Z,3.35
2022-09-13T04:04:40.817Z,3.70
2022-09-13T04:07:09.794Z,3.33
2022-09-13T04:09:37.155Z,3.50
2022-09-13T04:12:05.104Z,2.90
2022-09-13T04:14:33.603Z,2.90
2022-09-13T04:17:01.129Z,3.55
2022-09-13T04:19:28.760Z,3.30
2022-09-13T04:21:56.308Z,3.85
2022-09-13T04:24:28.206Z,3.50
2022-09-13T04:26:56.423Z,3.35
2022-09-13T04:29:25.679Z,3.67
2022-09-13T04:31:54.419Z,3.60
2022-09-13T04:34:23.573Z,3.42
2022-09-13T04:36:52.527Z,3.78
2022-09-13T04:39:20.933Z,4.22
2022-09-13T04:41:49.128Z,3.50
2022-09-13T04:44:17.570Z,3.47
2022-09-13T04:46:48.272Z,3.87
2022-09-13T04:49:17.488Z,3.65
2022-09-13T04:51:44.927Z,3.47
2022-09-13T04:54:15.504Z,4.12
2022-09-13T04:56:47.171Z,3.75
2022-09-13T04:59:14.650Z,3.30
2022-09-13T05:01:42.437Z,4.15
2022-09-13T05:04:10.483Z,3.47
2022-09-13T05:06:38.272Z,3.72
2022-09-13T05:09:05.807Z,3.85
2022-09-13T05:11:33.583Z,3.92
2022-09-13T05:14:01.257Z,3.60
2022-09-13T05:16:31.040Z,3.90
2022-09-13T05:18:59.128Z,3.97
2022-09-13T05:21:27.889Z,3.35
2022-09-13T05:23:56.591Z,3.58
2022-09-13T05:26:27.153Z,3.85
2022-09-13T05:28:54.668Z,3.97
2022-09-13T05:31:30.827Z,3.65
2022-09-13T05:34:01.591Z,3.33
2022-09-13T05:36:29.293Z,3.80
2022-09-13T05:39:12.561Z,3.30
2022-09-13T05:41:46.170Z,3.47
2022-09-13T05:44:14.377Z,4.07
2022-09-13T05:46:42.884Z,3.55
2022-09-13T05:49:12.736Z,3.40
2022-09-13T05:51:40.374Z,3.30
2022-09-13T05:54:08.462Z,3.33
2022-09-13T05:56:36.333Z,3.20
2022-09-13T05:59:03.689Z,3.53
2022-09-13T06:01:31.610Z,3.85
2022-09-13T06:03:59.712Z,3.47
2022-09-13T06:06:27.597Z,3.53
2022-09-13T06:08:56.323Z,3.55
2022-09-13T06:11:25.686Z,2.80
2022-09-13T06:13:53.528Z,3.17
2022-09-13T06:16:21.527Z,3.53
2022-09-13T06:18:50.114Z,3.22
2022-09-13T06:21:20.451Z,3.20
2022-09-13T06:23:52.806Z,3.47
2022-09-13T06:26:26.146Z,3.12
2022-09-13T06:28:55.329Z,3.20
2022-09-13T06:31:24.902Z,2.87
2022-09-13T06:34:00.977Z,3.37
2022-09-13T06:36:28.950Z,3.05
2022-09-13T06:38:57.183Z,2.70
2022-09-13T06:41:24.971Z,3.22
2022-09-13T06:43:57.869Z,2.60
2022-09-13T06:46:27.140Z,2.78
2022-09-13T06:48:54.916Z,2.87
2022-09-13T06:51:24.044Z,2.35
2022-09-13T06:53:55.846Z,2.28
2022-09-13T06:56:34.800Z,2.72
2022-09-13T06:59:05.030Z,2.08
2022-09-13T07:01:36.311Z,2.03
2022-09-13T07:04:09.394Z,2.10
2022-09-13T07:06:42.026Z,2.00
2022-09-13T07:09:12.896Z,2.30
2022-09-13T07:11:42.090Z,2.12
2022-09-13T07:14:13.540Z,2.45
2022-09-13T07:16:41.228Z,1.85
2022-09-13T07:19:20.144Z,1.92
2022-09-13T07:21:49.881Z,1.65
2022-09-13T07:24:18.301Z,2.10
2022-09-13T07:26:46.795Z,1.75
2022-09-13T07:29:17.012Z,1.80
2022-09-13T07:31:46.126Z,1.98
2022-09-13T07:34:16.063Z,2.20
2022-09-13T07:36:44.905Z,1.95
2022-09-13T07:39:16.359Z,1.80
2022-09-13T07:41:46.970Z,1.60
2022-09-13T07:44:14.501Z,2.37
2022-09-13T07:46:43.573Z,2.40
2022-09-13T07:49:18.171Z,1.98
2022-09-13T07:51:45.573Z,2.12
2022-09-13T07:54:15.473Z,2.10
2022-09-13T07:56:42.993Z,2.12
2022-09-13T07:59:15.266Z,2.10
2022-09-13T08:01:45.692Z,2.20
2022-09-13T08:04:17.711Z,2.50
2022-09-13T08:06:46.896Z,2.97
2022-09-13T08:09:15.528Z,2.90
2022-09-13T08:11:47.925Z,3.00
2022-09-13T08:14:17.233Z,2.92
2022-09-13T08:16:45.008Z,2.95
2022-09-13T08:19:14.963Z,2.60
2022-09-13T08:21:43.605Z,2.72
2022-09-13T08:24:19.144Z,3.03
2022-09-13T08:26:47.762Z,3.10
2022-09-13T08:29:15.949Z,3.08
2022-09-13T08:31:43.598Z,3.20
2022-09-13T08:34:14.667Z,2.85
2022-09-13T08:36:42.538Z,2.70
2022-09-13T08:39:12.899Z,2.65
2022-09-13T08:41:42.056Z,3.00
2022-09-13T08:44:13.981Z,2.78
2022-09-13T08:46:45.528Z,3.03
2022-09-13T08:49:38.061Z,2.60
2022-09-13T08:52:18.815Z,2.70
2022-09-13T08:54:46.425Z,2.42
2022-09-13T08:57:25.541Z,2.50
2022-09-13T09:00:04.611Z,2.60
2022-09-13T09:03:12.938Z,2.85
2022-09-13T09:05:49.091Z,2.80
2022-09-13T09:08:25.815Z,3.03
2022-09-13T09:10:54.999Z,2.67
2022-09-13T09:13:33.086Z,2.25
2022-09-13T09:16:05.350Z,2.85
2022-09-13T09:18:36.641Z,2.60
2022-09-13T09:21:04.888Z,2.35
2022-09-13T09:23:39.081Z,3.17
2022-09-13T09:26:18.983Z,2.65
2022-09-13T09:29:11.357Z,2.15
2022-09-13T09:31:59.696Z,2.25
2022-09-13T09:35:05.573Z,1.95
2022-09-13T09:37:35.176Z,2.15
2022-09-13T09:40:08.116Z,2.12
2022-09-13T09:42:45.097Z,2.15
2022-09-13T09:45:26.757Z,2.00
2022-09-13T09:47:55.774Z,1.85
2022-09-13T09:50:28.151Z,2.12
2022-09-13T09:52:59.805Z,1.87
2022-09-13T09:55:37.930Z,2.50
2022-09-13T09:58:11.415Z,2.40
2022-09-13T10:00:52.647Z,2.90
2022-09-13T10:03:24.505Z,2.67
2022-09-13T10:05:52.026Z,2.47
2022-09-13T10:08:28.581Z,2.47
2022-09-13T10:10:57.800Z,2.50
2022-09-13T10:13:31.043Z,2.60
2022-09-13T10:16:07.686Z,2.30
2022-09-13T10:18:44.573Z,2.35
2022-09-13T10:21:26.220Z,1.73
2022-09-13T10:24:17.562Z,2.20
2022-09-13T10:26:45.759Z,2.35
2022-09-13T10:29:15.681Z,2.10
2022-09-13T10:31:45.584Z,1.85
2022-09-13T10:34:45.372Z,2.15
2022-09-13T10:37:17.765Z,2.03
2022-09-13T10:40:13.452Z,2.03
2022-09-13T10:42:41.064Z,1.87
2022-09-13T10:45:09.673Z,2.12
2022-09-13T10:48:05.096Z,2.03
2022-09-13T10:50:33.676Z,1.75
2022-09-13T10:53:02.048Z,2.03
2022-09-13T10:55:31.291Z,2.12
2022-09-13T10:58:01.956Z,1.90
2022-09-13T11:01:06.518Z,2.37
2022-09-13T11:03:52.963Z,2.12
2022-09-13T11:06:25.790Z,1.75
2022-09-13T11:09:16.246Z,2.10
2022-09-13T11:11:57.315Z,2.15
2022-09-13T11:14:34.275Z,2.03
2022-09-13T11:17:33.802Z,2.03
2022-09-13T11:20:05.582Z,1.75
2022-09-13T11:22:32.942Z,1.42
2022-09-13T11:25:10.101Z,1.85
2022-09-13T11:28:06.742Z,1.65
2022-09-13T11:31:02.357Z,1.73
2022-09-13T11:33:41.492Z,1.60
2022-09-13T11:36:43.121Z,1.70
2022-09-13T11:39:26.456Z,1.85
2022-09-13T11:42:36.241Z,1.52
2022-09-13T11:45:20.714Z,1.60
2022-09-13T11:48:04.943Z,2.05
2022-09-13T11:50:39.848Z,1.80
2022-09-13T11:53:25.916Z,1.77
2022-09-13T11:56:05.290Z,1.75
2022-09-13T11:58:38.329Z,1.52
2022-09-13T12:01:11.975Z,1.50
2022-09-13T12:03:49.214Z,1.50
2022-09-13T12:06:24.822Z,1.90
2022-09-13T12:09:02.045Z,1.73
2022-09-13T12:11:35.292Z,1.30
2022-09-13T12:14:05.887Z,1.45
2022-09-13T12:16:55.094Z,1.40
2022-09-13T12:19:27.505Z,1.60
2022-09-13T12:22:00.118Z,1.23
2022-09-13T12:24:47.686Z,1.40
2022-09-13T12:27:37.714Z,1.55
2022-09-13T12:30:15.992Z,1.70
2022-09-13T12:32:47.960Z,1.40
2022-09-13T12:35:59.977Z,1.60
2022-09-13T12:38:40.707Z,1.55
2022-09-13T12:41:42.890Z,1.50
2022-09-13T12:44:16.210Z,1.70
2022-09-13T12:47:01.944Z,1.30
2022-09-13T12:50:15.096Z,1.60
2022-09-13T12:52:57.687Z,1.50
2022-09-13T12:55:46.012Z,1.50
2022-09-13T12:58:14.826Z,1.60
2022-09-13T13:00:59.983Z,1.40
2022-09-13T13:03:31.678Z,1.50
2022-09-13T13:06:24.395Z,1.60
2022-09-13T13:08:53.986Z,1.33
2022-09-13T13:11:27.086Z,1.33
2022-09-13T13:14:09.300Z,1.60
2022-09-13T13:16:40.738Z,1.55
2022-09-13T13:19:29.160Z,1.40
2022-09-13T13:21:56.671Z,1.42
2022-09-13T13:24:24.275Z,1.30
2022-09-13T13:26:56.671Z,1.42
2022-09-13T13:29:27.407Z,1.37
2022-09-13T13:31:57.667Z,1.45
2022-09-13T13:34:32.069Z,1.73
2022-09-13T13:37:10.472Z,1.50
2022-09-13T13:39:44.700Z,1.40
2022-09-13T13:42:38.290Z,1.33
2022-09-13T13:45:25.723Z,1.48
2022-09-13T13:48:11.357Z,1.77
2022-09-13T13:51:17.120Z,1.33
2022-09-13T13:53:57.596Z,1.40
2022-09-13T13:56:35.582Z,1.55
2022-09-13T13:59:16.226Z,1.50
2022-09-13T14:01:47.399Z,1.60
2022-09-13T14:04:34.390Z,1.40
2022-09-13T14:07:19.528Z,1.65
2022-09-13T14:09:53.058Z,1.30
2022-09-13T14:12:53.511Z,1.60
2022-09-13T14:15:54.324Z,1.27
2022-09-13T14:18:30.703Z,1.58
2022-09-13T14:21:09.581Z,1.30
2022-09-13T14:23:37.238Z,1.58
2022-09-13T14:26:06.087Z,1.50
2022-09-13T14:28:33.543Z,1.30
2022-09-13T14:31:00.924Z,1.42
2022-09-13T14:33:37.414Z,1.27
2022-09-13T14:36:16.579Z,1.52
2022-09-13T14:38:55.372Z,1.20
2022-09-13T14:41:31.292Z,1.30
2022-09-13T14:44:22.544Z,1.42
2022-09-13T14:47:02.008Z,1.40
2022-09-13T14:49:34.605Z,1.65
2022-09-13T14:52:20.806Z,1.27
2022-09-13T14:54:52.710Z,1.30
2022-09-13T14:57:33.936Z,1.20
2022-09-13T15:00:09.648Z,1.70
2022-09-13T15:02:39.223Z,1.33
2022-09-13T15:05:14.277Z,1.37
2022-09-13T15:07:42.329Z,1.90
2022-09-13T15:10:13.091Z,1.40
2022-09-13T15:12:55.546Z,1.70
2022-09-13T15:15:26.286Z,1.60
2022-09-13T15:17:59.883Z,1.42
2022-09-13T15:20:31.362Z,1.98
2022-09-13T15:22:58.895Z,2.40
2022-09-13T15:25:28.060Z,3.35
2022-09-13T15:27:56.990Z,2.30
2022-09-13T15:30:30.441Z,2.10
2022-09-13T15:33:36.923Z,1.60
2022-09-13T15:36:19.671Z,1.80
2022-09-13T15:39:09.335Z,2.05
2022-09-13T15:41:41.197Z,1.75
2022-09-13T15:44:09.766Z,1.60
2022-09-13T15:47:04.958Z,1.60
2022-09-13T15:49:32.891Z,1.92
2022-09-13T15:52:02.087Z,2.05
2022-09-13T15:54:36.693Z,1.92
2022-09-13T15:57:09.901Z,1.73
2022-09-13T15:59:37.252Z,1.70
2022-09-13T16:02:17.977Z,1.52
2022-09-13T16:04:45.707Z,1.65
2022-09-13T16:07:14.330Z,1.65
2022-09-13T16:09:42.175Z,1.77
2022-09-13T16:12:10.463Z,1.60
2022-09-13T16:14:38.025Z,1.58
2022-09-13T16:17:10.926Z,1.73
2022-09-13T16:19:38.560Z,1.77
2022-09-13T16:22:09.681Z,1.50
2022-09-13T16:24:39.872Z,1.60
2022-09-13T16:27:07.523Z,1.62
2022-09-13T16:29:34.952Z,2.28
2022-09-13T16:32:02.806Z,2.15
2022-09-13T16:34:30.231Z,1.80
2022-09-13T16:36:57.942Z,1.85
2022-09-13T16:39:25.726Z,1.83
2022-09-13T16:41:53.261Z,2.40
2022-09-13T16:44:20.840Z,2.10
2022-09-13T16:46:48.632Z,1.73
2022-09-13T16:49:16.184Z,2.22
2022-09-13T16:51:43.592Z,2.70
2022-09-13T16:54:12.242Z,2.08
2022-09-13T16:56:39.647Z,2.45
2022-09-13T16:59:07.057Z,3.62
2022-09-13T17:01:34.835Z,3.08
2022-09-13T17:04:02.596Z,3.35
2022-09-13T17:06:30.118Z,3.30
2022-09-13T17:09:03.200Z,3.87
2022-09-13T17:11:34.465Z,3.85
2022-09-13T17:14:05.319Z,3.78
2022-09-13T17:16:35.696Z,3.22
2022-09-13T17:19:06.155Z,2.85
2022-09-13T17:21:34.117Z,2.80
2022-09-13T17:24:02.232Z,2.33
2022-09-13T17:26:30.123Z,2.42
2022-09-13T17:28:57.657Z,2.55
2022-09-13T17:31:25.172Z,2.50
2022-09-13T17:33:53.385Z,2.75
2022-09-13T17:36:21.246Z,2.50
2022-09-13T17:38:49.209Z,2.50
2022-09-13T17:41:22.511Z,2.72
2022-09-13T17:43:53.593Z,2.10
2022-09-13T17:46:23.533Z,2.33
2022-09-13T17:48:53.572Z,2.78
2022-09-13T17:51:26.727Z,2.90
2022-09-13T17:54:00.356Z,2.67
2022-09-13T17:56:34.469Z,2.77
2022-09-13T17:59:10.036Z,2.47
2022-09-13T18:01:40.215Z,3.30
2022-09-13T18:04:09.039Z,2.50
2022-09-13T18:06:38.297Z,3.03
2022-09-13T18:09:06.626Z,2.67
2022-09-13T18:11:34.630Z,3.00
2022-09-13T18:14:03.140Z,4.28
2022-09-13T18:16:31.628Z,4.12
2022-09-13T18:19:00.968Z,3.75
2022-09-13T18:21:29.920Z,3.30
2022-09-13T18:24:00.147Z,3.50
2022-09-13T18:26:31.809Z,3.42
2022-09-13T18:29:04.290Z,3.60
2022-09-13T18:31:35.418Z,3.70
2022-09-13T18:34:06.245Z,3.03
2022-09-13T18:36:35.356Z,3.53
2022-09-13T18:39:04.688Z,3.70
2022-09-13T18:41:35.571Z,3.83
2022-09-13T18:44:05.354Z,3.70
2022-09-13T18:46:35.372Z,3.53
2022-09-13T18:49:04.992Z,3.05
2022-09-13T18:51:38.200Z,3.28
2022-09-13T18:54:08.036Z,3.70
2022-09-13T18:56:38.487Z,3.12
2022-09-13T18:59:06.961Z,3.03
2022-09-13T19:01:37.544Z,3.47
2022-09-13T19:04:11.919Z,3.05
2022-09-13T19:09:11.161Z,3.50
2022-09-13T19:11:47.361Z,2.97
2022-09-13T19:14:18.630Z,3.30
2022-09-13T19:16:47.271Z,3.90
2022-09-13T19:19:15.407Z,3.58
2022-09-13T19:21:43.733Z,3.90
2022-09-13T19:24:18.174Z,4.07
2022-09-13T19:26:49.309Z,3.90
2022-09-13T19:29:18.773Z,3.42
2022-09-13T19:31:48.963Z,3.50
2022-09-13T19:34:18.894Z,3.72
2022-09-13T19:36:49.256Z,4.30
2022-09-13T19:39:17.882Z,4.18
2022-09-13T19:41:46.251Z,3.37
2022-09-13T19:44:14.832Z,3.78
2022-09-13T19:46:43.630Z,4.00
2022-09-13T19:49:16.576Z,3.87
2022-09-13T19:51:50.074Z,3.67
2022-09-13T19:54:20.993Z,3.35
2022-09-13T19:56:50.352Z,3.30
2022-09-13T19:59:20.180Z,3.15
2022-09-13T20:01:50.730Z,3.80
2022-09-13T20:04:21.434Z,3.80
2022-09-13T20:06:50.805Z,4.10
2022-09-13T20:09:20.561Z,3.55
2022-09-13T20:11:52.698Z,3.83
2022-09-13T20:14:22.680Z,3.53
2022-09-13T20:16:50.504Z,3.70
2022-09-13T20:22:09.134Z,3.42
2022-09-13T20:24:37.731Z,3.42
2022-09-13T20:27:06.008Z,3.70
2022-09-13T20:29:34.537Z,3.37
2022-09-13T20:32:02.742Z,3.80
2022-09-13T20:34:30.477Z,3.53
2022-09-13T20:36:58.457Z,3.55
2022-09-13T20:39:26.509Z,3.70
2022-09-13T20:41:54.973Z,3.50
2022-09-13T20:44:23.207Z,3.15
2022-09-13T20:46:51.153Z,3.58
2022-09-13T20:49:19.955Z,3.22
2022-09-13T20:51:50.179Z,3.22
2022-09-13T20:54:18.069Z,3.05
2022-09-13T20:56:46.391Z,3.20
2022-09-13T20:59:14.528Z,2.97
2022-09-13T21:01:42.043Z,2.87
2022-09-13T21:04:09.804Z,3.25
2022-09-13T21:06:39.958Z,3.10
2022-09-13T21:09:07.589Z,2.95
2022-09-13T21:11:36.521Z,3.20
2022-09-13T21:14:06.348Z,3.10
2022-09-13T21:16:36.577Z,3.20
2022-09-13T21:19:04.403Z,3.37
2022-09-13T21:21:34.702Z,2.87
2022-09-13T21:24:04.459Z,3.00
2022-09-13T21:26:32.539Z,3.10
2022-09-13T21:29:00.762Z,3.12
2022-09-13T21:31:30.449Z,3.33
2022-09-13T21:34:14.574Z,3.80
2022-09-13T21:36:42.018Z,3.17
2022-09-13T21:39:09.760Z,3.58
2022-09-13T21:41:37.126Z,3.35
2022-09-13T21:44:05.273Z,3.22
2022-09-13T21:46:34.907Z,3.30
2022-09-13T21:49:04.990Z,3.05
2022-09-13T21:51:41.352Z,3.30
2022-09-13T21:54:11.550Z,3.30
2022-09-13T21:56:42.182Z,3.03
2022-09-13T21:59:14.710Z,3.25
2022-09-13T22:01:46.728Z,3.08
2022-09-13T22:04:17.380Z,3.30
2022-09-13T22:06:46.159Z,3.30
2022-09-13T22:09:14.510Z,3.80
2022-09-13T22:11:43.948Z,3.67
2022-09-13T22:14:13.342Z,3.20
2022-09-13T22:16:42.177Z,3.30
2022-09-13T22:19:12.255Z,3.40
2022-09-13T22:21:42.397Z,3.30
2022-09-13T22:24:14.246Z,3.33
2022-09-13T22:26:41.969Z,3.17
2022-09-13T22:29:09.931Z,3.10
2022-09-13T22:31:40.032Z,3.03
2022-09-13T22:34:08.478Z,3.37
2022-09-13T22:36:36.252Z,3.85
2022-09-13T22:39:03.955Z,3.20
2022-09-13T22:41:33.309Z,3.67
2022-09-13T22:44:02.272Z,3.30
2022-09-13T22:46:39.254Z,3.55
2022-09-13T22:49:07.601Z,3.90
2022-09-13T22:51:35.018Z,3.78
2022-09-13T22:54:06.873Z,4.00
2022-09-13T22:56:36.166Z,3.87
2022-09-13T22:59:07.770Z,3.30
2022-09-13T23:01:35.916Z,3.70
2022-09-13T23:04:04.352Z,3.33
2022-09-13T23:06:31.825Z,3.33
2022-09-13T23:09:01.484Z,3.33
2022-09-13T23:11:32.239Z,3.37
2022-09-13T23:14:02.317Z,3.50
2022-09-13T23:16:35.080Z,3.15
2022-09-13T23:19:02.846Z,3.08
2022-09-13T23:21:35.686Z,3.10
2022-09-13T23:24:04.804Z,2.83
2022-09-13T23:26:33.517Z,3.53
2022-09-13T23:29:03.036Z,3.22
2022-09-13T23:31:33.669Z,3.35
2022-09-13T23:34:03.473Z,3.28
2022-09-13T23:36:34.634Z,4.00
2022-09-13T23:39:03.596Z,3.90
2022-09-13T23:41:32.777Z,3.45
2022-09-13T23:44:01.141Z,3.78
2022-09-13T23:46:29.167Z,3.60
2022-09-13T23:48:56.940Z,3.70
2022-09-13T23:51:26.006Z,3.90
2022-09-13T23:53:57.862Z,4.22
2022-09-13T23:56:26.551Z,4.05
2022-09-13T23:58:56.575Z,3.90
